Time;durP1;ratioP1;P1;durP2;ratioP2;P2;SDS_P1;SDS_P2;PMS_P1;PMS_P2;Temp;Humidity;BMP_temperature;BMP_pressure;BME280_temperature;BME280_humidity;BME280_pressure;Samples;Min_cycle;Max_cycle;Signal;HPM_P1;HPM_P2
2020/12/23 00:00:01;;;;;;;1.70;0.97;;;;;;;11.38;95.60;96902.50;5073446;28;20232;-67
2020/12/23 00:02:26;;;;;;;1.00;1.00;;;;;;;11.33;95.41;96903.19;5072826;28;20173;-68
2020/12/23 00:04:52;;;;;;;0.93;0.93;;;;;;;11.29;95.83;96903.88;5055956;28;20176;-68
2020/12/23 00:07:17;;;;;;;0.77;0.77;;;;;;;11.36;95.18;96902.75;5072912;28;20207;-68
2020/12/23 00:09:44;;;;;;;0.63;0.63;;;;;;;11.29;95.59;96896.81;5072367;28;20177;-68
2020/12/23 00:12:10;;;;;;;0.80;0.80;;;;;;;11.35;95.16;96895.91;5072978;28;20224;-68
2020/12/23 00:14:36;;;;;;;1.40;0.90;;;;;;;11.32;95.30;96895.53;5072277;28;20169;-67
2020/12/23 00:17:01;;;;;;;0.70;0.70;;;;;;;11.43;95.25;96894.72;5072831;28;20259;-67
2020/12/23 00:19:27;;;;;;;0.83;0.80;;;;;;;11.52;94.76;96896.00;5072887;28;20193;-67
2020/12/23 00:21:53;;;;;;;1.13;0.80;;;;;;;11.57;94.21;96896.91;5072427;28;20250;-67
2020/12/23 00:24:18;;;;;;;0.90;0.90;;;;;;;11.65;93.85;96901.00;5072882;28;20181;-67
2020/12/23 00:26:45;;;;;;;0.90;0.90;;;;;;;11.65;93.92;96901.00;5071114;28;20201;-66
2020/12/23 00:29:10;;;;;;;1.00;1.00;;;;;;;11.65;93.87;96898.38;5070982;28;20178;-67
2020/12/23 00:31:35;;;;;;;1.00;0.90;;;;;;;11.75;93.38;96893.38;5071837;28;20176;-67
2020/12/23 00:34:02;;;;;;;0.80;0.80;;;;;;;11.79;92.95;96891.09;5072244;28;20540;-67
2020/12/23 00:36:28;;;;;;;0.70;0.70;;;;;;;11.80;92.96;96890.06;5071975;28;20716;-67
2020/12/23 00:38:53;;;;;;;0.80;0.80;;;;;;;11.81;92.79;96887.22;5071415;28;20299;-67
2020/12/23 00:41:19;;;;;;;0.80;0.80;;;;;;;11.81;92.70;96886.41;5062565;28;20184;-67
2020/12/23 00:43:44;;;;;;;0.93;0.80;;;;;;;11.85;92.82;96895.41;5071215;28;20249;-67
2020/12/23 00:46:11;;;;;;;0.80;0.80;;;;;;;11.83;92.41;96890.38;5071606;28;20578;-67
2020/12/23 00:48:38;;;;;;;0.83;0.83;;;;;;;11.92;92.10;96885.59;5071239;28;20177;-66
2020/12/23 00:51:09;;;;;;;0.80;0.80;;;;;;;11.89;92.22;96886.03;5072219;28;20632;-67
2020/12/23 00:53:34;;;;;;;1.57;0.87;;;;;;;11.91;92.08;96894.50;5071622;28;20177;-66
2020/12/23 00:56:00;;;;;;;0.77;0.77;;;;;;;11.95;91.70;96895.63;5071166;28;20256;-66
2020/12/23 00:58:25;;;;;;;0.90;0.90;;;;;;;11.94;91.86;96900.06;5073753;28;20239;-67
2020/12/23 01:00:51;;;;;;;0.90;0.80;;;;;;;11.93;91.88;96897.66;5071081;28;20256;-67
2020/12/23 01:03:16;;;;;;;0.70;0.70;;;;;;;11.97;91.62;96893.56;5071499;28;20189;-67
2020/12/23 01:05:41;;;;;;;0.70;0.70;;;;;;;11.98;91.46;96890.69;5070630;28;20200;-67
2020/12/23 01:08:07;;;;;;;1.50;0.80;;;;;;;12.00;91.26;96893.09;5072001;28;20193;-67
2020/12/23 01:10:32;;;;;;;0.80;0.80;;;;;;;11.99;91.10;96899.38;5071259;28;20188;-66
2020/12/23 01:12:58;;;;;;;0.80;0.80;;;;;;;11.96;91.09;96900.66;5071336;28;20173;-67
2020/12/23 01:15:23;;;;;;;1.27;0.80;;;;;;;11.99;90.74;96904.63;5070567;28;20201;-67
2020/12/23 01:17:49;;;;;;;0.93;0.90;;;;;;;11.97;91.05;96902.25;5071506;28;20188;-68
2020/12/23 01:20:14;;;;;;;1.00;0.87;;;;;;;11.98;90.92;96901.19;5071642;28;20227;-67
2020/12/23 01:22:40;;;;;;;0.70;0.70;;;;;;;12.03;90.67;96900.53;5071223;28;20269;-67
2020/12/23 01:25:05;;;;;;;1.17;0.90;;;;;;;12.01;90.60;96907.81;5071043;28;20181;-67
2020/12/23 01:27:35;;;;;;;1.33;0.90;;;;;;;12.06;90.11;96908.72;5070784;28;20192;-67
2020/12/23 01:30:00;;;;;;;2.20;0.67;;;;;;;12.07;89.82;96907.69;5071602;28;20571;-67
2020/12/23 01:32:25;;;;;;;0.80;0.80;;;;;;;12.09;89.75;96910.88;5072022;28;20226;-68
2020/12/23 01:34:51;;;;;;;0.80;0.80;;;;;;;12.06;89.84;96902.69;5071104;28;20185;-67
2020/12/23 01:37:17;;;;;;;0.90;0.90;;;;;;;12.05;89.61;96904.50;5070478;28;20235;-67
2020/12/23 01:39:42;;;;;;;0.70;0.70;;;;;;;12.16;89.07;96907.31;5070991;28;20335;-67
2020/12/23 01:42:08;;;;;;;0.90;0.90;;;;;;;12.17;89.13;96899.22;5070553;28;20546;-67
2020/12/23 01:44:36;;;;;;;0.70;0.70;;;;;;;12.24;88.42;96904.34;5071137;28;20169;-66
2020/12/23 01:47:07;;;;;;;0.80;0.80;;;;;;;12.23;88.45;96897.47;5055966;28;20224;-67
2020/12/23 01:49:33;;;;;;;1.00;1.00;;;;;;;12.18;88.56;96906.06;5071008;28;20307;-66
2020/12/23 01:51:59;;;;;;;0.90;0.90;;;;;;;12.24;88.30;96904.34;5071148;28;20178;-67
2020/12/23 01:54:25;;;;;;;1.00;1.00;;;;;;;12.25;88.17;96909.38;5071436;28;20191;-67
2020/12/23 01:56:54;;;;;;;1.20;1.10;;;;;;;12.27;87.97;96906.50;5069935;28;20724;-67
2020/12/23 01:59:19;;;;;;;0.80;0.80;;;;;;;12.30;87.59;96892.91;5068450;28;20309;-67
2020/12/23 02:01:47;;;;;;;1.27;0.90;;;;;;;12.31;87.42;96890.03;5070869;28;20208;-67
2020/12/23 02:04:14;;;;;;;1.00;1.00;;;;;;;12.36;87.27;96889.34;5071128;28;20185;-67
2020/12/23 02:06:40;;;;;;;0.90;0.90;;;;;;;12.41;86.64;96884.97;5070448;28;20224;-66
2020/12/23 02:09:07;;;;;;;0.80;0.80;;;;;;;12.37;86.93;96889.06;5071425;28;20260;-67
2020/12/23 02:11:32;;;;;;;1.20;1.10;;;;;;;12.41;86.84;96887.59;5071072;28;20188;-66
2020/12/23 02:13:58;;;;;;;1.23;1.20;;;;;;;12.49;86.36;96886.41;5070943;28;20545;-67
2020/12/23 02:16:23;;;;;;;0.90;0.90;;;;;;;12.47;86.33;96885.84;5071082;28;20649;-67
2020/12/23 02:18:49;;;;;;;1.10;1.10;;;;;;;12.50;86.05;96891.44;5068992;28;20569;-68
2020/12/23 02:21:16;;;;;;;1.20;1.10;;;;;;;12.57;85.86;96886.03;5070913;28;20230;-68
2020/12/23 02:23:41;;;;;;;1.10;1.10;;;;;;;12.61;85.25;96883.72;5070411;28;20166;-68
2020/12/23 02:26:06;;;;;;;1.10;1.10;;;;;;;12.65;84.63;96884.84;5071263;28;20228;-67
2020/12/23 02:28:34;;;;;;;1.10;1.00;;;;;;;12.69;84.46;96878.09;5069229;28;20181;-69
2020/12/23 02:31:02;;;;;;;1.47;1.37;;;;;;;12.71;84.20;96871.53;5071510;28;20177;-68
2020/12/23 02:33:28;;;;;;;1.17;1.17;;;;;;;12.66;84.35;96862.75;5055181;28;20173;-67
2020/12/23 02:35:54;;;;;;;1.10;1.10;;;;;;;12.74;84.20;96852.66;5070311;28;20197;-68
2020/12/23 02:38:19;;;;;;;1.10;1.10;;;;;;;12.72;84.11;96846.84;5070753;28;20227;-68
2020/12/23 02:40:45;;;;;;;1.20;1.20;;;;;;;12.76;84.07;96847.19;5070814;28;20185;-67
2020/12/23 02:43:10;;;;;;;1.30;1.30;;;;;;;12.71;84.30;96841.81;5074861;28;20208;-67
2020/12/23 02:45:36;;;;;;;1.23;1.23;;;;;;;12.69;84.37;96844.69;5073613;28;20250;-66
2020/12/23 02:48:02;;;;;;;1.20;1.20;;;;;;;12.76;83.42;96840.06;5074701;28;20189;-68
2020/12/23 02:50:27;;;;;;;1.20;1.20;;;;;;;12.67;83.80;96830.97;5074246;28;20181;-67
2020/12/23 02:52:53;;;;;;;1.43;1.43;;;;;;;12.77;83.52;96822.44;5073922;28;20170;-67
2020/12/23 02:55:18;;;;;;;1.20;1.20;;;;;;;12.79;83.44;96825.66;5074025;28;20250;-67
2020/12/23 02:57:43;;;;;;;1.17;1.17;;;;;;;12.75;83.53;96827.97;5078325;28;20736;-68
2020/12/23 03:00:09;;;;;;;1.20;1.20;;;;;;;12.79;83.51;96828.28;5074570;28;20208;-67
2020/12/23 03:02:35;;;;;;;1.20;1.20;;;;;;;12.85;83.00;96830.75;5073532;28;20650;-66
2020/12/23 03:05:01;;;;;;;1.33;1.33;;;;;;;12.83;82.93;96826.75;5074239;28;20637;-67
2020/12/23 03:07:27;;;;;;;1.00;1.00;;;;;;;12.82;82.90;96818.06;5074628;28;20176;-67
2020/12/23 03:09:52;;;;;;;1.10;1.10;;;;;;;12.80;82.84;96817.53;5073778;28;20188;-67
2020/12/23 03:12:18;;;;;;;1.10;1.10;;;;;;;12.84;82.58;96828.34;5074307;28;20638;-67
2020/12/23 03:14:43;;;;;;;1.20;1.20;;;;;;;12.81;82.28;96827.00;5073357;28;20600;-67
2020/12/23 03:17:09;;;;;;;1.10;1.10;;;;;;;12.86;82.57;96828.91;5074202;28;20215;-68
2020/12/23 03:19:34;;;;;;;1.00;1.00;;;;;;;12.80;82.26;96825.41;5073089;28;20302;-66
2020/12/23 03:22:00;;;;;;;1.00;1.00;;;;;;;12.90;82.15;96824.75;5074166;28;20223;-67
2020/12/23 03:24:25;;;;;;;1.10;1.10;;;;;;;12.92;81.36;96825.34;5074011;28;20165;-68
2020/12/23 03:26:51;;;;;;;1.20;1.10;;;;;;;12.97;81.55;96820.16;5072925;28;20807;-65
2020/12/23 03:29:16;;;;;;;3.07;1.10;;;;;;;13.00;81.01;96819.66;5073896;28;20173;-65
2020/12/23 03:31:41;;;;;;;1.53;1.00;;;;;;;13.06;81.00;96813.44;5072426;28;20533;-66
2020/12/23 03:34:07;;;;;;;1.00;1.00;;;;;;;13.01;80.98;96815.19;5074406;28;20213;-65
2020/12/23 03:36:35;;;;;;;1.00;0.90;;;;;;;12.98;81.14;96824.38;5073649;28;20242;-65
2020/12/23 03:39:01;;;;;;;1.00;1.00;;;;;;;12.98;81.25;96813.84;5074004;28;20201;-66
2020/12/23 03:41:26;;;;;;;1.00;0.90;;;;;;;13.03;81.07;96813.13;5073764;28;20531;-67
2020/12/23 03:43:52;;;;;;;1.00;1.00;;;;;;;12.98;81.31;96803.31;5072999;28;20767;-66
2020/12/23 03:46:17;;;;;;;0.90;0.90;;;;;;;13.00;81.42;96801.22;5073637;28;20208;-66
2020/12/23 03:48:43;;;;;;;1.00;1.00;;;;;;;12.98;81.19;96797.28;5072666;28;20208;-65
2020/12/23 03:51:08;;;;;;;1.20;1.10;;;;;;;12.89;81.86;96791.59;5073831;28;20230;-67
2020/12/23 03:53:34;;;;;;;1.10;1.10;;;;;;;12.83;82.15;96790.72;5073357;28;20653;-65
2020/12/23 03:55:59;;;;;;;1.00;1.00;;;;;;;12.89;81.50;96795.03;5079078;28;20688;-65
2020/12/23 03:58:25;;;;;;;0.90;0.90;;;;;;;12.83;81.77;96789.94;5069707;28;20298;-66
2020/12/23 04:00:51;;;;;;;0.90;0.90;;;;;;;12.84;81.92;96792.31;5072565;28;20186;-67
2020/12/23 04:03:16;;;;;;;0.90;0.80;;;;;;;12.83;81.79;96796.00;5073342;28;20322;-67
2020/12/23 04:05:42;;;;;;;0.80;0.80;;;;;;;12.93;81.79;96794.56;5072472;28;20737;-66
2020/12/23 04:08:07;;;;;;;0.90;0.90;;;;;;;12.96;81.41;96784.34;5073218;28;20189;-66
2020/12/23 04:10:36;;;;;;;1.03;0.80;;;;;;;12.95;81.48;96779.31;5072991;28;20170;-65
2020/12/23 04:13:02;;;;;;;0.90;0.90;;;;;;;12.93;81.51;96784.81;5073165;28;20181;-66
2020/12/23 04:15:28;;;;;;;1.00;0.90;;;;;;;12.89;81.63;96786.34;5073296;28;20209;-66
2020/12/23 04:17:54;;;;;;;0.80;0.80;;;;;;;12.86;81.78;96779.75;5071685;28;20189;-66
2020/12/23 04:20:20;;;;;;;0.83;0.77;;;;;;;12.87;81.81;96788.44;5072697;28;20194;-66
2020/12/23 04:22:45;;;;;;;0.80;0.80;;;;;;;12.89;81.91;96781.88;5072160;28;20188;-66
2020/12/23 04:25:11;;;;;;;1.00;1.00;;;;;;;12.88;81.89;96777.66;5073155;28;20216;-66
2020/12/23 04:27:36;;;;;;;0.87;0.87;;;;;;;12.83;81.99;96776.78;5071057;28;20180;-65
2020/12/23 04:30:06;;;;;;;0.90;0.90;;;;;;;12.89;81.75;96768.72;5072635;28;20166;-67
2020/12/23 04:32:32;;;;;;;0.97;0.97;;;;;;;12.75;82.37;96771.94;5072955;28;20181;-67
2020/12/23 04:35:01;;;;;;;0.90;0.90;;;;;;;12.78;82.77;96771.44;5072188;28;20196;-67
2020/12/23 04:37:28;;;;;;;1.00;1.00;;;;;;;12.67;84.12;96769.69;5072745;28;20173;-66
2020/12/23 04:39:55;;;;;;;1.07;1.03;;;;;;;12.64;84.58;96771.00;5055893;28;20995;-66
2020/12/23 04:42:20;;;;;;;1.00;1.00;;;;;;;12.56;85.35;96773.19;5073068;28;20181;-66
2020/12/23 04:44:46;;;;;;;0.93;0.93;;;;;;;12.39;87.27;96765.31;5071747;28;20192;-66
2020/12/23 04:47:15;;;;;;;1.30;1.27;;;;;;;12.28;88.18;96756.47;5072592;28;20669;-66
2020/12/23 04:49:46;;;;;;;1.20;1.20;;;;;;;12.23;88.62;96752.94;5069773;28;20231;-66
2020/12/23 04:52:12;;;;;;;1.00;1.00;;;;;;;12.24;88.98;96757.19;5072289;28;20180;-65
2020/12/23 04:54:39;;;;;;;1.40;1.40;;;;;;;12.18;89.53;96748.41;5071752;28;20192;-65
2020/12/23 04:57:04;;;;;;;1.17;1.17;;;;;;;12.19;89.33;96746.59;5071821;28;20216;-67
2020/12/23 04:59:30;;;;;;;1.13;1.13;;;;;;;12.26;88.86;96747.25;5070184;28;20241;-67
2020/12/23 05:02:00;;;;;;;1.23;1.10;;;;;;;12.20;89.30;96743.72;5071587;28;20741;-67
2020/12/23 05:04:26;;;;;;;1.20;1.10;;;;;;;12.12;89.56;96748.56;5070175;28;20181;-66
2020/12/23 05:07:05;;;;;;;1.37;1.27;;;;;;;12.15;89.51;96741.00;5070953;28;20679;-66
2020/12/23 05:09:31;;;;;;;1.20;1.20;;;;;;;12.14;89.65;96752.56;5069070;28;20169;-66
2020/12/23 05:11:57;;;;;;;2.57;1.20;;;;;;;12.08;89.70;96748.25;5071191;28;20795;-66
2020/12/23 05:14:22;;;;;;;0.97;0.97;;;;;;;12.02;90.38;96750.00;5072071;28;20629;-66
2020/12/23 05:16:48;;;;;;;0.90;0.90;;;;;;;12.06;89.83;96742.41;5070713;28;20205;-66
2020/12/23 05:19:17;;;;;;;1.60;1.10;;;;;;;12.06;89.94;96745.03;5071324;28;20233;-66
2020/12/23 05:21:43;;;;;;;1.00;0.97;;;;;;;11.98;90.48;96754.09;5070776;28;20642;-66
2020/12/23 05:24:10;;;;;;;1.00;1.00;;;;;;;11.99;90.26;96737.31;5071738;28;20177;-66
2020/12/23 05:26:39;;;;;;;1.60;1.20;;;;;;;12.04;89.82;96742.66;5070958;28;20208;-66
2020/12/23 05:29:04;;;;;;;1.47;1.37;;;;;;;11.96;90.46;96750.94;5070745;28;20235;-66
2020/12/23 05:31:32;;;;;;;0.90;0.90;;;;;;;11.93;90.98;96745.31;5071787;28;20220;-66
2020/12/23 05:33:58;;;;;;;1.10;1.00;;;;;;;11.98;90.61;96743.59;5070952;28;20169;-65
2020/12/23 05:36:25;;;;;;;1.60;1.23;;;;;;;12.04;89.76;96742.66;5071218;28;20217;-65
2020/12/23 05:38:52;;;;;;;1.17;1.00;;;;;;;12.16;89.14;96734.72;5068980;28;20555;-66
2020/12/23 05:41:17;;;;;;;0.83;0.80;;;;;;;12.08;89.41;96729.84;5070952;28;20234;-66
2020/12/23 05:43:44;;;;;;;1.00;1.00;;;;;;;12.09;89.61;96736.72;5070538;28;20173;-65
2020/12/23 05:46:12;;;;;;;5.70;1.07;;;;;;;12.09;89.20;96734.84;5071150;28;20216;-66
2020/12/23 05:48:40;;;;;;;1.37;1.30;;;;;;;12.08;89.50;96738.53;5069653;28;20191;-65
2020/12/23 05:51:07;;;;;;;1.43;1.33;;;;;;;12.06;89.91;96737.16;5071009;28;20645;-65
2020/12/23 05:53:35;;;;;;;0.90;0.90;;;;;;;11.97;90.30;96731.50;5071174;28;20267;-67
2020/12/23 05:56:03;;;;;;;1.00;1.00;;;;;;;12.08;89.57;96735.09;5069580;28;20205;-66
2020/12/23 05:58:31;;;;;;;1.37;1.17;;;;;;;12.12;89.17;96732.78;5068574;28;20240;-66
2020/12/23 06:01:02;;;;;;;1.33;1.23;;;;;;;12.07;89.30;96725.63;5071332;28;20247;-66
2020/12/23 06:03:57;;;;;;;1.20;1.20;;;;;;;12.05;89.92;96717.97;5071392;28;20169;-66
2020/12/23 06:06:28;;;;;;;1.17;1.17;;;;;;;12.14;88.86;96720.22;5065525;28;20197;-66
2020/12/23 06:09:01;;;;;;;1.13;1.10;;;;;;;12.17;88.74;96714.47;5070297;28;20170;-66
2020/12/23 06:11:30;;;;;;;1.20;1.20;;;;;;;12.19;88.30;96707.16;5070416;28;20165;-67
2020/12/23 06:14:09;;;;;;;1.20;1.20;;;;;;;12.11;88.68;96691.78;5067419;28;20227;-66
2020/12/23 06:16:41;;;;;;;1.43;1.00;;;;;;;12.01;89.19;96693.22;5070972;28;20196;-66
2020/12/23 06:19:23;;;;;;;1.10;1.10;;;;;;;12.02;88.44;96689.56;5071822;28;20675;-66
2020/12/23 06:21:49;;;;;;;0.90;0.90;;;;;;;12.08;87.89;96696.50;5070790;28;20183;-67
2020/12/23 06:24:15;;;;;;;1.00;1.00;;;;;;;12.01;88.28;96695.84;5074715;28;20395;-66
2020/12/23 06:26:44;;;;;;;1.40;1.30;;;;;;;11.99;88.25;96692.66;5072127;28;20690;-67
2020/12/23 06:29:11;;;;;;;1.20;1.20;;;;;;;11.92;88.55;96694.66;5074581;28;20185;-65
2020/12/23 06:31:55;;;;;;;1.40;1.40;;;;;;;12.09;87.67;96700.69;5074905;28;20311;-66
2020/12/23 06:34:26;;;;;;;1.27;1.27;;;;;;;12.02;87.51;96688.78;5068404;28;20244;-66
2020/12/23 06:36:53;;;;;;;1.60;1.50;;;;;;;12.10;87.11;96688.38;5072566;28;20255;-65
2020/12/23 06:39:18;;;;;;;1.37;1.37;;;;;;;12.04;87.12;96687.47;5074487;28;20204;-67
2020/12/23 06:41:54;;;;;;;1.23;1.23;;;;;;;12.12;85.73;96682.88;5073562;28;20174;-67
2020/12/23 06:44:20;;;;;;;1.10;1.10;;;;;;;12.12;85.48;96683.69;5074458;28;20537;-67
2020/12/23 06:47:01;;;;;;;2.50;1.10;;;;;;;12.12;85.60;96688.94;5073564;28;20208;-67
2020/12/23 06:49:44;;;;;;;1.27;1.27;;;;;;;12.19;85.37;96681.69;5074325;28;20196;-67
2020/12/23 06:52:21;;;;;;;1.00;1.00;;;;;;;12.17;85.03;96685.59;5074335;28;20626;-67
2020/12/23 06:55:03;;;;;;;1.30;1.30;;;;;;;12.21;84.85;96684.88;5065814;28;20185;-67
2020/12/23 06:57:34;;;;;;;1.20;1.20;;;;;;;12.17;84.74;96685.59;5072471;28;20196;-67
2020/12/23 07:00:07;;;;;;;2.47;1.33;;;;;;;12.25;84.07;96686.00;5072911;28;20205;-67
2020/12/23 07:02:46;;;;;;;1.20;1.20;;;;;;;12.23;84.30;96687.25;5073419;28;20177;-67
2020/12/23 07:05:14;;;;;;;2.93;1.13;;;;;;;12.29;83.50;96679.22;5073696;28;20181;-70
2020/12/23 07:07:43;;;;;;;1.43;1.33;;;;;;;12.32;83.52;96688.44;5073502;28;20542;-67
2020/12/23 07:10:17;;;;;;;1.20;1.20;;;;;;;12.29;83.46;96692.34;5074255;28;20182;-67
2020/12/23 07:12:47;;;;;;;1.10;1.03;;;;;;;12.33;82.82;96684.78;5072818;28;20184;-67
2020/12/23 07:15:19;;;;;;;1.10;1.10;;;;;;;12.28;83.18;96680.25;5073552;28;20698;-68
2020/12/23 07:17:46;;;;;;;1.80;1.30;;;;;;;12.32;82.72;96688.44;5073052;28;20196;-67
2020/12/23 07:20:13;;;;;;;1.03;1.03;;;;;;;12.31;82.19;96690.31;5074077;28;20201;-72
2020/12/23 07:22:47;;;;;;;1.50;1.10;;;;;;;12.28;82.93;96695.22;5072913;28;20177;-68
2020/12/23 07:25:17;;;;;;;1.10;1.10;;;;;;;12.32;82.21;96685.81;5071828;28;20184;-66
2020/12/23 07:27:45;;;;;;;3.23;0.80;;;;;;;12.64;86.04;96689.47;5071277;28;20174;-63
2020/12/23 07:30:11;;;;;;;4.90;1.20;;;;;;;13.25;84.94;96698.97;5065838;28;20536;-60
2020/12/23 07:32:37;;;;;;;2.00;1.27;;;;;;;13.17;79.66;96695.97;5073270;28;20181;-66
2020/12/23 07:35:04;;;;;;;1.10;1.10;;;;;;;12.95;79.75;96695.94;5072266;28;20574;-65
2020/12/23 07:37:38;;;;;;;1.17;1.10;;;;;;;12.84;79.62;96688.94;5073717;28;20185;-66
2020/12/23 07:40:16;;;;;;;1.03;1.03;;;;;;;12.74;80.26;96697.50;5072163;28;20204;-64
2020/12/23 07:42:49;;;;;;;1.17;1.07;;;;;;;12.68;80.18;96697.66;5070305;28;20169;-67
2020/12/23 07:45:16;;;;;;;0.90;0.90;;;;;;;12.55;80.53;96695.34;5069731;28;20177;-65
2020/12/23 07:48:08;;;;;;;1.10;1.10;;;;;;;12.54;80.69;96693.78;5072862;28;20634;-66
2020/12/23 07:50:37;;;;;;;1.00;1.00;;;;;;;12.62;80.48;96698.63;5068541;28;20181;-64
2020/12/23 07:53:13;;;;;;;0.90;0.90;;;;;;;12.60;80.17;96692.81;5072653;28;20199;-65
2020/12/23 07:55:49;;;;;;;1.13;1.13;;;;;;;12.60;79.99;96701.47;5071705;28;20254;-66
2020/12/23 07:58:16;;;;;;;2.77;1.07;;;;;;;12.59;80.01;96696.50;5051102;28;20234;-65
2020/12/23 08:00:44;;;;;;;1.70;1.60;;;;;;;12.56;79.91;96695.13;5048636;28;20194;-66
2020/12/23 08:03:10;;;;;;;1.20;1.20;;;;;;;12.54;80.06;96697.19;5038974;28;20631;-64
2020/12/23 08:05:37;;;;;;;1.07;1.07;;;;;;;12.58;79.87;96697.53;5048329;28;20729;-65
2020/12/23 08:08:02;;;;;;;1.27;1.20;;;;;;;12.59;79.60;96697.28;5051732;28;20810;-65
2020/12/23 08:10:28;;;;;;;1.10;1.10;;;;;;;12.57;79.61;96701.97;5051181;28;20181;-65
2020/12/23 08:12:57;;;;;;;1.30;1.30;;;;;;;12.73;79.15;96705.63;5052146;28;20185;-65
2020/12/23 08:15:23;;;;;;;1.30;1.20;;;;;;;12.66;79.11;96711.03;5052010;28;20400;-64
2020/12/23 08:18:03;;;;;;;1.07;1.07;;;;;;;12.74;78.65;96712.47;5052068;28;20204;-64
2020/12/23 08:20:29;;;;;;;1.10;1.10;;;;;;;12.73;78.68;96711.69;5052410;28;20198;-64
2020/12/23 08:22:55;;;;;;;1.40;1.13;;;;;;;12.75;78.67;96701.72;5051642;28;20645;-64
2020/12/23 08:25:22;;;;;;;1.47;1.10;;;;;;;12.75;78.45;96695.66;5052034;28;20174;-64
2020/12/23 08:27:53;;;;;;;1.30;1.30;;;;;;;12.61;78.77;96704.91;5051233;28;20181;-64
2020/12/23 08:30:21;;;;;;;1.20;1.20;;;;;;;12.63;78.85;96702.84;5052440;28;20181;-64
2020/12/23 08:33:01;;;;;;;1.17;1.17;;;;;;;12.62;79.01;96699.44;5051722;28;20175;-64
2020/12/23 08:35:28;;;;;;;1.30;1.30;;;;;;;12.65;78.86;96698.94;5051553;28;20197;-64
2020/12/23 08:37:54;;;;;;;1.07;1.07;;;;;;;12.82;77.87;96712.03;5051405;28;20669;-65
2020/12/23 08:40:20;;;;;;;1.20;1.20;;;;;;;12.67;78.13;96702.13;5047897;28;20206;-64
2020/12/23 08:43:18;;;;;;;1.50;1.40;;;;;;;12.82;77.23;96704.16;5045106;28;20202;-63
2020/12/23 08:45:45;;;;;;;2.57;1.30;;;;;;;12.86;77.57;96708.72;5042829;28;20202;-69
2020/12/23 08:48:10;;;;;;;1.20;1.20;;;;;;;12.91;77.46;96700.88;5051787;28;20190;-65
2020/12/23 08:50:36;;;;;;;1.57;1.47;;;;;;;12.87;77.28;96699.75;5050838;28;20666;-66
2020/12/23 08:53:01;;;;;;;1.50;1.40;;;;;;;12.98;77.11;96694.66;5050688;28;20174;-66
2020/12/23 08:55:27;;;;;;;1.30;1.30;;;;;;;13.07;76.55;96701.09;5051112;28;20202;-66
2020/12/23 08:58:09;;;;;;;1.60;1.50;;;;;;;13.02;77.06;96698.38;5049076;28;20244;-67
2020/12/23 09:00:34;;;;;;;1.53;1.33;;;;;;;13.00;77.09;96696.00;5051700;28;20638;-67
2020/12/23 09:03:01;;;;;;;1.40;1.30;;;;;;;13.19;75.96;96694.69;5050952;28;20189;-67
2020/12/23 09:05:30;;;;;;;1.63;1.63;;;;;;;13.18;76.18;96689.66;5051768;28;20609;-67
2020/12/23 09:08:04;;;;;;;2.60;1.80;;;;;;;13.12;76.46;96703.81;5051454;28;20180;-67
2020/12/23 09:10:29;;;;;;;1.20;1.20;;;;;;;13.22;75.83;96698.66;5051641;28;20173;-67
2020/12/23 09:13:05;;;;;;;1.53;1.53;;;;;;;13.23;75.78;96689.72;5051155;28;20265;-67
2020/12/23 09:15:31;;;;;;;1.30;1.30;;;;;;;13.25;75.63;96698.19;5050262;28;20205;-67
2020/12/23 09:18:13;;;;;;;2.00;1.00;;;;;;;13.29;75.33;96689.53;5050573;28;20178;-67
2020/12/23 09:20:40;;;;;;;1.47;1.20;;;;;;;13.20;76.13;96698.13;5051490;28;20666;-67
2020/12/23 09:23:07;;;;;;;2.10;1.50;;;;;;;13.28;75.64;96695.84;5050802;28;20166;-67
2020/12/23 09:25:33;;;;;;;1.40;1.30;;;;;;;13.14;76.37;96694.63;5051292;28;20284;-67
2020/12/23 09:28:06;;;;;;;1.40;1.30;;;;;;;13.27;75.57;96694.25;5049511;28;20189;-67
2020/12/23 09:30:52;;;;;;;1.77;1.23;;;;;;;13.23;75.63;96682.63;5051501;28;20167;-67
2020/12/23 09:33:19;;;;;;;1.20;1.20;;;;;;;13.15;75.63;96690.16;5051535;28;20549;-67
2020/12/23 09:35:46;;;;;;;3.20;1.40;;;;;;;13.22;75.40;96690.75;5050735;28;20205;-67
2020/12/23 09:38:36;;;;;;;1.47;1.40;;;;;;;13.00;76.81;96695.19;5050834;28;20170;-67
2020/12/23 09:41:04;;;;;;;1.80;1.70;;;;;;;13.17;77.70;96686.25;5049890;28;20174;-66
2020/12/23 09:43:32;;;;;;;2.20;2.10;;;;;;;13.29;78.09;96688.75;5051059;28;20603;-65
2020/12/23 09:46:11;;;;;;;2.00;1.90;;;;;;;13.30;76.38;96688.50;5049576;28;20424;-65
2020/12/23 09:48:37;;;;;;;1.60;1.50;;;;;;;13.36;76.16;96685.94;5050608;28;20178;-67
2020/12/23 09:51:03;;;;;;;1.87;1.63;;;;;;;13.27;75.85;96688.19;5050108;28;20189;-67
2020/12/23 09:53:29;;;;;;;1.50;1.30;;;;;;;13.31;75.32;96678.78;5050569;28;20185;-67
2020/12/23 09:55:55;;;;;;;1.60;1.50;;;;;;;13.33;75.39;96677.47;5049624;28;20692;-67
2020/12/23 09:58:21;;;;;;;1.33;1.33;;;;;;;13.34;75.31;96667.75;5048127;28;20238;-67
2020/12/23 10:00:49;;;;;;;1.33;1.33;;;;;;;13.35;75.25;96665.91;5049826;28;20206;-66
2020/12/23 10:03:15;;;;;;;1.40;1.40;;;;;;;13.27;75.65;96667.13;5051069;28;20196;-67
2020/12/23 10:05:41;;;;;;;1.40;1.40;;;;;;;13.31;75.83;96665.63;5050701;28;20670;-68
2020/12/23 10:08:07;;;;;;;1.70;1.60;;;;;;;13.32;75.77;96656.66;5050714;28;20181;-67
2020/12/23 10:10:34;;;;;;;1.57;1.47;;;;;;;13.29;75.97;96654.53;5050363;28;20591;-67
2020/12/23 10:13:00;;;;;;;1.47;1.47;;;;;;;13.48;75.25;96655.00;5043512;28;20174;-67
2020/12/23 10:15:26;;;;;;;1.53;1.43;;;;;;;13.42;75.67;96650.72;5037978;28;20758;-68
2020/12/23 10:17:51;;;;;;;1.50;1.37;;;;;;;13.45;75.49;96653.66;5049730;28;20623;-67
2020/12/23 10:20:17;;;;;;;1.30;1.30;;;;;;;13.32;75.80;96644.28;5050122;28;20198;-67
2020/12/23 10:22:42;;;;;;;1.80;1.23;;;;;;;13.47;74.90;96635.78;5050947;28;20239;-67
2020/12/23 10:25:09;;;;;;;1.37;1.37;;;;;;;13.45;75.13;96624.69;5049849;28;20186;-66
2020/12/23 10:27:35;;;;;;;1.50;1.40;;;;;;;13.56;75.02;96636.91;5048685;28;20228;-67
2020/12/23 10:30:04;;;;;;;1.33;1.23;;;;;;;13.51;74.62;96626.34;5049694;28;20208;-68
2020/12/23 10:32:30;;;;;;;1.40;1.40;;;;;;;13.47;74.76;96621.81;5050926;28;20170;-66
2020/12/23 10:34:56;;;;;;;1.90;1.50;;;;;;;13.50;74.67;96619.47;5049568;28;20185;-64
2020/12/23 10:37:23;;;;;;;1.20;1.20;;;;;;;13.68;73.93;96616.50;5050337;28;20202;-65
2020/12/23 10:39:49;;;;;;;1.20;1.20;;;;;;;13.74;74.20;96619.97;5049806;28;20670;-63
2020/12/23 10:42:15;;;;;;;1.07;1.07;;;;;;;13.77;73.92;96614.19;5050587;28;20703;-64
2020/12/23 10:44:40;;;;;;;1.30;1.20;;;;;;;13.86;73.60;96610.06;5050260;28;20182;-64
2020/12/23 10:47:06;;;;;;;1.50;1.20;;;;;;;13.95;73.52;96602.47;5049595;28;20722;-64
2020/12/23 10:49:31;;;;;;;1.40;1.20;;;;;;;13.93;73.83;96602.72;5050103;28;20232;-64
2020/12/23 10:51:58;;;;;;;1.60;1.20;;;;;;;13.91;73.42;96598.75;5049291;28;20264;-66
2020/12/23 10:54:28;;;;;;;1.20;1.20;;;;;;;13.98;73.85;96591.44;5045565;28;20184;-63
2020/12/23 10:56:55;;;;;;;1.67;1.37;;;;;;;14.14;73.16;96588.66;5049706;28;20217;-65
2020/12/23 10:59:21;;;;;;;1.27;1.27;;;;;;;14.15;73.19;96586.81;5048031;28;20233;-64
2020/12/23 11:01:54;;;;;;;1.27;1.00;;;;;;;14.16;73.18;96581.28;5050939;28;20575;-66
2020/12/23 11:04:20;;;;;;;1.30;1.20;;;;;;;14.14;73.71;96579.97;5053979;28;20228;-64
2020/12/23 11:06:52;;;;;;;1.50;1.47;;;;;;;14.15;74.18;96584.19;5053968;28;20198;-64
2020/12/23 11:09:18;;;;;;;1.40;1.40;;;;;;;14.09;75.31;96572.81;5052547;28;20261;-64
2020/12/23 11:11:51;;;;;;;1.10;1.10;;;;;;;14.06;75.20;96573.31;5054604;28;20237;-64
2020/12/23 11:14:17;;;;;;;1.60;1.50;;;;;;;13.93;76.44;96567.69;5053870;28;20179;-64
2020/12/23 11:16:47;;;;;;;1.48;1.10;;;;;;;14.01;74.83;96572.47;5053919;28;20198;-64
2020/12/23 11:19:12;;;;;;;1.20;1.20;;;;;;;14.03;74.88;96555.38;5053377;28;20197;-64
2020/12/23 11:21:38;;;;;;;1.13;1.13;;;;;;;13.88;75.65;96559.72;5053729;28;20511;-64
2020/12/23 11:24:03;;;;;;;1.30;1.30;;;;;;;13.93;75.05;96549.25;5052916;28;20166;-65
2020/12/23 11:26:29;;;;;;;1.20;1.20;;;;;;;13.95;75.18;96549.78;5054016;28;20194;-64
2020/12/23 11:28:54;;;;;;;1.33;1.23;;;;;;;13.84;76.04;96540.22;5052848;28;20174;-66
2020/12/23 11:31:21;;;;;;;1.30;1.30;;;;;;;13.84;75.77;96543.63;5054394;28;20698;-64
2020/12/23 11:33:46;;;;;;;1.20;1.20;;;;;;;13.91;75.63;96546.06;5054226;28;20258;-65
2020/12/23 11:36:14;;;;;;;1.30;1.30;;;;;;;13.92;75.59;96542.38;5053074;28;20197;-65